createdAt,value
2018-11-20T06:13:57.062Z,14.10
2018-11-20T06:17:34.928Z,14.50
2018-11-20T06:20:10.145Z,14.60
2018-11-20T06:23:15.027Z,14.60
2018-11-20T06:25:49.546Z,14.70
2018-11-20T06:28:31.224Z,14.70
2018-11-20T06:31:16.423Z,14.70
2018-11-20T06:33:51.263Z,14.70
2018-11-20T06:36:25.662Z,14.80
2018-11-20T06:39:17.071Z,14.80
2018-11-20T06:46:33.522Z,14.90
2018-11-20T06:49:10.205Z,14.90
2018-11-20T06:53:47.782Z,14.90
2018-11-20T06:56:22.505Z,15.00
2018-11-20T07:01:03.854Z,15.00
2018-11-20T07:03:38.389Z,15.10
2018-11-20T07:06:44.722Z,15.20
2018-11-20T07:09:19.185Z,15.20
2018-11-20T07:12:13.397Z,15.30
2018-11-20T07:14:50.057Z,15.30
2018-11-20T07:20:23.965Z,15.40
2018-11-20T07:22:58.770Z,15.50
2018-11-20T07:25:54.107Z,15.50
2018-11-20T07:28:33.057Z,15.60
2018-11-20T07:31:34.738Z,15.60
2018-11-20T07:35:07.864Z,15.70
2018-11-20T07:37:42.029Z,15.80
2018-11-20T07:42:19.193Z,16.00
2018-11-20T07:45:52.126Z,16.10
2018-11-20T07:48:26.074Z,16.40
2018-11-20T07:51:06.486Z,16.70
2018-11-20T07:53:55.027Z,16.80
2018-11-20T07:57:03.942Z,17.00
2018-11-20T08:00:43.466Z,17.20
2018-11-20T08:07:56.084Z,17.60
2018-11-20T08:11:34.683Z,17.70
2018-11-20T08:14:10.410Z,18.00
2018-11-20T08:16:44.068Z,18.20
2018-11-20T08:20:17.170Z,18.30
2018-11-20T08:22:51.378Z,18.40
2018-11-20T08:25:26.262Z,18.50
2018-11-20T08:28:15.220Z,18.60
2018-11-20T08:30:59.917Z,18.60
2018-11-20T08:33:34.331Z,18.60
2018-11-20T08:36:09.078Z,18.70
2018-11-20T08:38:50.577Z,18.70
2018-11-20T08:41:23.818Z,18.70
2018-11-20T08:44:02.949Z,18.70
2018-11-20T08:46:52.625Z,18.60
2018-11-20T08:49:26.669Z,18.70
2018-11-20T08:52:01.357Z,18.60
2018-11-20T08:54:38.566Z,18.60
2018-11-20T08:57:13.305Z,18.60
2018-11-20T08:59:52.578Z,18.50
2018-11-20T09:02:26.769Z,18.50
2018-11-20T09:05:01.247Z,18.40
2018-11-20T09:07:36.048Z,18.40
2018-11-20T09:10:24.707Z,18.30
2018-11-20T09:13:03.467Z,18.30
2018-11-20T09:15:37.745Z,18.30
2018-11-20T09:18:16.413Z,18.20
2018-11-20T09:22:56.717Z,18.10
2018-11-20T09:25:30.883Z,18.10
2018-11-20T09:28:05.738Z,18.00
2018-11-20T09:32:43.333Z,17.90
2018-11-20T09:36:25.574Z,17.80
2018-11-20T09:39:02.074Z,17.80
2018-11-20T09:41:35.655Z,17.70
2018-11-20T09:44:17.270Z,17.60
2018-11-20T09:47:54.504Z,17.60
2018-11-20T09:52:33.258Z,17.50
2018-11-20T09:55:07.290Z,17.50
2018-11-20T09:57:42.649Z,17.40
2018-11-20T10:00:17.245Z,17.30
2018-11-20T10:04:54.613Z,17.30
2018-11-20T10:07:34.989Z,17.20
2018-11-20T10:10:10.699Z,17.20
2018-11-20T10:12:45.428Z,17.10
2018-11-20T10:17:28.977Z,17.10
2018-11-20T10:21:07.323Z,17.10
2018-11-20T10:25:51.035Z,17.00
2018-11-20T10:28:24.459Z,16.90
2018-11-20T10:31:09.658Z,16.90
2018-11-20T10:34:19.557Z,16.80
2018-11-20T10:37:02.125Z,16.80
2018-11-20T10:39:36.846Z,16.80
2018-11-20T10:42:11.037Z,16.70
2018-11-20T10:44:45.135Z,16.70
2018-11-20T10:47:20.076Z,16.70
2018-11-20T10:49:54.534Z,16.70
2018-11-20T10:52:33.863Z,16.70
2018-11-20T10:55:08.481Z,16.60
2018-11-20T10:59:49.498Z,16.60
2018-11-20T11:02:24.566Z,16.60
2018-11-20T11:04:58.213Z,16.60
2018-11-20T11:07:43.550Z,16.50
2018-11-20T11:10:18.137Z,16.50
2018-11-20T11:13:09.260Z,16.50
2018-11-20T11:22:23.328Z,16.40
2018-11-20T11:24:57.588Z,16.40
2018-11-20T11:28:31.678Z,16.30
2018-11-20T11:31:05.815Z,16.30
2018-11-20T11:33:45.707Z,16.30
2018-11-20T11:36:55.555Z,16.30
2018-11-20T11:39:29.751Z,16.20
2018-11-20T11:42:05.934Z,16.20
2018-11-20T11:44:40.559Z,16.20
2018-11-20T11:47:15.431Z,16.20
2018-11-20T11:49:50.011Z,16.20
2018-11-20T11:52:25.430Z,16.20
2018-11-20T11:55:59.248Z,16.20
2018-11-20T12:00:37.711Z,16.20
